createdAt,value
2018-03-19T00:00:16.467Z,49.2
2018-03-19T00:01:16.573Z,49.1
2018-03-19T00:02:16.844Z,49.1
2018-03-19T00:03:17.108Z,49.1
2018-03-19T00:04:16.378Z,49.2
2018-03-19T00:05:16.658Z,48.9
2018-03-19T00:06:16.929Z,48.8
2018-03-19T00:07:17.196Z,49.0
2018-03-19T00:08:16.474Z,48.8
2018-03-19T00:09:16.753Z,48.9
2018-03-19T00:10:17.029Z,49.0
2018-03-19T00:11:17.089Z,49.0
2018-03-19T00:12:16.367Z,49.4
2018-03-19T00:13:16.642Z,49.1
2018-03-19T00:14:16.912Z,48.8
2018-03-19T00:15:17.185Z,49.0
2018-03-19T00:16:16.464Z,49.1
2018-03-19T00:17:16.726Z,49.1
2018-03-19T00:18:17.003Z,49.0
2018-03-19T00:19:16.272Z,49.0
2018-03-19T00:20:16.546Z,48.8
2018-03-19T00:21:16.603Z,48.9
2018-03-19T00:22:16.874Z,48.9
2018-03-19T00:23:17.145Z,48.9
2018-03-19T00:24:16.415Z,48.6
2018-03-19T00:25:16.695Z,48.6
2018-03-19T00:26:16.977Z,48.4
2018-03-19T00:27:17.251Z,48.2
2018-03-19T00:28:16.519Z,48.2
2018-03-19T00:29:16.797Z,47.8
2018-03-19T00:30:17.081Z,47.9
2018-03-19T00:31:17.153Z,48.0
2018-03-19T00:32:16.413Z,47.9
2018-03-19T00:33:16.683Z,47.9
2018-03-19T00:34:16.976Z,47.9
2018-03-19T00:35:17.245Z,48.3
2018-03-19T00:36:16.508Z,47.9
2018-03-19T00:37:16.771Z,47.6
2018-03-19T00:38:17.041Z,47.8
2018-03-19T00:39:16.328Z,48.1
2018-03-19T00:40:16.602Z,48.2
2018-03-19T00:41:16.635Z,47.8
2018-03-19T00:42:16.899Z,48.0
2018-03-19T00:43:17.737Z,47.6
2018-03-19T00:44:17.009Z,47.5
2018-03-19T00:45:16.279Z,47.1
2018-03-19T00:46:16.553Z,47.5
2018-03-19T00:47:16.820Z,47.0
2018-03-19T00:48:17.085Z,47.5
2018-03-19T00:49:16.365Z,46.9
2018-03-19T00:50:16.644Z,46.7
2018-03-19T00:51:16.679Z,46.9
2018-03-19T00:52:16.952Z,46.4
2018-03-19T00:53:17.222Z,46.5
2018-03-19T00:54:16.492Z,46.6
2018-03-19T00:55:16.772Z,46.8
2018-03-19T00:56:17.040Z,47.0
2018-03-19T00:57:16.315Z,46.8
2018-03-19T00:58:16.577Z,46.9
2018-03-19T00:59:16.855Z,46.6
2018-03-19T01:00:17.124Z,46.4
2018-03-19T01:01:17.179Z,46.3
2018-03-19T01:02:16.446Z,46.5
2018-03-19T01:03:16.715Z,46.4
2018-03-19T01:04:17.034Z,46.5
2018-03-19T01:05:16.301Z,46.3
2018-03-19T01:06:16.567Z,46.5
2018-03-19T01:07:16.832Z,46.5
2018-03-19T01:08:17.110Z,46.7
2018-03-19T01:09:16.371Z,46.8
2018-03-19T01:10:16.647Z,46.8
2018-03-19T01:11:16.689Z,46.8
2018-03-19T01:12:16.973Z,46.7
2018-03-19T01:13:17.527Z,46.9
2018-03-19T01:14:16.799Z,46.8
2018-03-19T01:15:17.077Z,46.7
2018-03-19T01:16:16.340Z,46.0
2018-03-19T01:17:16.617Z,45.9
2018-03-19T01:18:16.889Z,46.5
2018-03-19T01:19:17.177Z,46.5
2018-03-19T01:20:16.453Z,46.8
2018-03-19T01:21:16.500Z,46.9
2018-03-19T01:22:16.775Z,46.8
2018-03-19T01:23:17.055Z,46.8
2018-03-19T01:24:16.338Z,46.9
2018-03-19T01:25:16.609Z,46.8
2018-03-19T01:26:16.873Z,46.6
2018-03-19T01:27:17.135Z,46.2
2018-03-19T01:28:16.401Z,46.1
2018-03-19T01:29:16.674Z,46.2
2018-03-19T01:30:16.957Z,46.3
2018-03-19T01:31:16.997Z,46.6
2018-03-19T01:32:16.268Z,46.4
2018-03-19T01:33:16.547Z,46.7
2018-03-19T01:34:16.821Z,46.1
2018-03-19T01:35:17.100Z,46.6
2018-03-19T01:36:16.366Z,46.4
2018-03-19T01:37:16.633Z,46.5
2018-03-19T01:38:16.900Z,46.6
2018-03-19T01:39:17.172Z,46.1
2018-03-19T01:40:16.448Z,46.3
2018-03-19T01:41:16.485Z,46.1
2018-03-19T01:42:16.759Z,46.1
2018-03-19T01:43:17.024Z,45.9
2018-03-19T01:44:16.290Z,46.0
2018-03-19T01:45:16.559Z,46.0
2018-03-19T01:46:16.827Z,46.1
2018-03-19T01:47:17.108Z,46.4
2018-03-19T01:48:16.386Z,46.2
2018-03-19T01:49:16.668Z,46.5
2018-03-19T01:50:16.937Z,46.0
2018-03-19T01:51:17.308Z,46.1
2018-03-19T01:52:16.572Z,45.8
2018-03-19T01:53:16.831Z,46.0
2018-03-19T01:54:17.100Z,46.1
2018-03-19T01:55:16.372Z,45.8
2018-03-19T01:56:16.636Z,45.8
2018-03-19T01:57:16.914Z,45.8
2018-03-19T01:58:17.195Z,45.9
2018-03-19T01:59:16.466Z,46.1
2018-03-19T02:00:16.749Z,46.1
2018-03-19T02:01:16.786Z,46.1
2018-03-19T02:02:17.055Z,46.0
2018-03-19T02:03:16.325Z,46.0
2018-03-19T02:04:16.594Z,46.0
2018-03-19T02:05:16.872Z,46.0
2018-03-19T02:06:17.144Z,46.0
2018-03-19T02:07:16.469Z,46.0
2018-03-19T02:08:16.740Z,46.2
2018-03-19T02:09:17.071Z,46.2
2018-03-19T02:10:16.353Z,46.8
2018-03-19T02:11:16.380Z,45.9
2018-03-19T02:12:16.648Z,45.8
2018-03-19T02:13:16.914Z,46.0
2018-03-19T02:14:17.191Z,46.0
2018-03-19T02:15:16.467Z,46.1
2018-03-19T02:16:16.800Z,45.9
2018-03-19T02:17:17.080Z,46.5
2018-03-19T02:18:16.350Z,46.0
2018-03-19T02:19:16.626Z,46.0
2018-03-19T02:20:16.908Z,46.2
2018-03-19T02:21:16.952Z,46.1
2018-03-19T02:22:17.227Z,46.2
2018-03-19T02:23:16.505Z,46.2
2018-03-19T02:24:16.777Z,46.0
2018-03-19T02:25:17.055Z,45.9
2018-03-19T02:26:16.326Z,45.9
2018-03-19T02:27:16.593Z,46.1
2018-03-19T02:28:16.863Z,46.1
2018-03-19T02:29:17.133Z,46.0
2018-03-19T02:30:16.419Z,46.1
2018-03-19T02:31:16.448Z,46.0
2018-03-19T02:32:16.722Z,46.0
2018-03-19T02:33:16.997Z,46.1
2018-03-19T02:34:16.281Z,46.0
2018-03-19T02:35:16.575Z,46.0
2018-03-19T02:36:16.849Z,46.1
2018-03-19T02:37:17.128Z,46.2
2018-03-19T02:38:16.395Z,45.9
2018-03-19T02:39:16.679Z,46.0
2018-03-19T02:40:16.967Z,46.2
2018-03-19T02:41:16.991Z,46.0
2018-03-19T02:42:16.268Z,46.0
2018-03-19T02:43:16.555Z,45.6
2018-03-19T02:44:16.830Z,45.9
2018-03-19T02:45:17.105Z,45.9
2018-03-19T02:46:16.370Z,46.0
2018-03-19T02:47:16.643Z,45.8
2018-03-19T02:48:16.925Z,45.4
2018-03-19T02:49:17.202Z,45.8
2018-03-19T02:50:16.495Z,45.4
2018-03-19T02:51:16.570Z,45.4
2018-03-19T02:52:16.839Z,45.5
2018-03-19T02:53:17.127Z,46.0
2018-03-19T02:54:16.410Z,45.5
2018-03-19T02:55:16.701Z,45.8
2018-03-19T02:56:16.977Z,45.8
2018-03-19T02:57:17.241Z,45.9
2018-03-19T02:58:16.518Z,46.2
2018-03-19T02:59:16.791Z,46.1
2018-03-19T03:00:17.065Z,45.6
2018-03-19T03:01:17.126Z,45.7
2018-03-19T03:02:16.424Z,45.8
2018-03-19T03:03:16.707Z,45.3
2018-03-19T03:04:16.980Z,45.8
2018-03-19T03:05:17.250Z,46.1
2018-03-19T03:06:16.525Z,46.0
2018-03-19T03:07:16.799Z,46.0
2018-03-19T03:08:17.075Z,46.0
2018-03-19T03:09:16.358Z,46.1
2018-03-19T03:10:16.637Z,46.1
2018-03-19T03:11:16.686Z,45.5
2018-03-19T03:12:16.952Z,45.6
2018-03-19T03:13:17.223Z,45.6
2018-03-19T03:14:16.488Z,45.2
2018-03-19T03:15:16.775Z,45.2
2018-03-19T03:16:17.040Z,45.4
2018-03-19T03:17:16.310Z,45.4
2018-03-19T03:18:16.583Z,45.2
2018-03-19T03:19:16.852Z,46.0
2018-03-19T03:20:17.131Z,45.6
2018-03-19T03:21:17.142Z,45.4
2018-03-19T03:22:16.411Z,45.5
2018-03-19T03:23:16.677Z,45.5
2018-03-19T03:24:16.950Z,45.2
2018-03-19T03:25:17.238Z,45.4
2018-03-19T03:26:16.526Z,45.5
2018-03-19T03:27:16.797Z,46.0
2018-03-19T03:28:17.060Z,45.5
2018-03-19T03:29:16.327Z,46.1
2018-03-19T03:30:16.608Z,45.7
2018-03-19T03:31:16.663Z,45.4
2018-03-19T03:32:16.927Z,45.3
2018-03-19T03:33:17.470Z,45.7
2018-03-19T03:34:16.767Z,45.8
2018-03-19T03:35:17.298Z,45.8
2018-03-19T03:36:16.578Z,45.6
2018-03-19T03:37:16.843Z,45.9
2018-03-19T03:38:17.121Z,46.1
2018-03-19T03:39:16.396Z,46.1
2018-03-19T03:40:16.680Z,46.4
2018-03-19T03:41:16.730Z,46.3
2018-03-19T03:42:16.433Z,46.3
2018-03-19T03:43:16.714Z,46.4
2018-03-19T03:44:16.992Z,46.3
2018-03-19T03:45:16.268Z,45.9
2018-03-19T03:46:16.537Z,46.0
2018-03-19T03:47:16.796Z,46.0
2018-03-19T03:48:17.069Z,45.8
2018-03-19T03:49:16.349Z,45.9
2018-03-19T03:50:17.235Z,45.6
2018-03-19T03:51:16.665Z,46.0
2018-03-19T03:52:16.941Z,45.3
2018-03-19T03:53:17.212Z,45.3
2018-03-19T03:54:16.475Z,45.5
2018-03-19T03:55:16.746Z,45.5
2018-03-19T03:56:17.017Z,45.2
2018-03-19T03:57:16.289Z,45.2
2018-03-19T03:58:16.560Z,45.0
2018-03-19T03:59:16.836Z,45.1
2018-03-19T04:00:17.135Z,45.0
2018-03-19T04:01:17.148Z,45.1
2018-03-19T04:02:16.424Z,45.3
2018-03-19T04:03:16.710Z,45.2
2018-03-19T04:04:16.994Z,45.1
2018-03-19T04:05:16.270Z,45.0
2018-03-19T04:06:16.535Z,45.1
2018-03-19T04:07:16.804Z,45.1
2018-03-19T04:08:17.075Z,45.1
2018-03-19T04:09:16.349Z,45.7
2018-03-19T04:10:16.627Z,45.4
2018-03-19T04:11:16.674Z,45.6
2018-03-19T04:12:16.951Z,45.5
2018-03-19T04:13:17.229Z,45.2
2018-03-19T04:14:16.504Z,45.4
2018-03-19T04:15:16.775Z,45.5
2018-03-19T04:16:17.049Z,45.6
2018-03-19T04:17:16.322Z,45.6
2018-03-19T04:18:16.603Z,45.8
2018-03-19T04:19:16.869Z,45.6
2018-03-19T04:20:17.152Z,45.8
2018-03-19T04:21:17.183Z,45.9
2018-03-19T04:22:16.463Z,45.6
2018-03-19T04:23:16.736Z,45.5
2018-03-19T04:24:17.098Z,45.5
2018-03-19T04:25:16.379Z,46.0
2018-03-19T04:26:16.656Z,45.5
2018-03-19T04:27:16.923Z,45.4
2018-03-19T04:28:17.190Z,45.2
2018-03-19T04:29:16.461Z,45.4
2018-03-19T04:30:16.737Z,45.4
2018-03-19T04:31:16.769Z,45.5
2018-03-19T04:32:17.038Z,45.5
2018-03-19T04:33:16.305Z,45.4
2018-03-19T04:34:16.572Z,45.6
2018-03-19T04:35:16.851Z,45.5
2018-03-19T04:36:17.237Z,45.6
2018-03-19T04:37:16.513Z,45.5
2018-03-19T04:38:16.778Z,45.5
2018-03-19T04:39:17.045Z,45.8
2018-03-19T04:40:16.321Z,45.4
2018-03-19T04:41:16.382Z,45.5
2018-03-19T04:42:16.664Z,45.6
2018-03-19T04:43:16.929Z,45.7
2018-03-19T04:44:17.194Z,46.0
2018-03-19T04:45:16.458Z,45.5
2018-03-19T04:46:16.732Z,45.2
2018-03-19T04:47:17.009Z,45.4
2018-03-19T04:48:16.278Z,45.5
2018-03-19T04:49:16.545Z,45.5
2018-03-19T04:50:16.817Z,46.4
2018-03-19T04:51:16.870Z,46.2
2018-03-19T04:52:17.144Z,45.5
2018-03-19T04:53:16.409Z,45.7
2018-03-19T04:54:16.672Z,46.1
2018-03-19T04:55:16.940Z,45.8
2018-03-19T04:56:17.204Z,45.6
2018-03-19T04:57:16.472Z,45.9
2018-03-19T04:58:16.749Z,45.7
2018-03-19T04:59:17.019Z,45.8
2018-03-19T05:00:16.290Z,45.4
2018-03-19T05:01:16.347Z,45.6
2018-03-19T05:02:16.616Z,45.6
2018-03-19T05:03:16.878Z,45.3
2018-03-19T05:04:17.148Z,45.4
2018-03-19T05:05:16.416Z,45.4
2018-03-19T05:06:16.689Z,45.4
2018-03-19T05:07:16.964Z,45.4
2018-03-19T05:08:17.249Z,45.5
2018-03-19T05:09:16.515Z,45.5
2018-03-19T05:10:16.789Z,45.2
2018-03-19T05:11:16.953Z,45.4
2018-03-19T05:12:16.297Z,45.7
2018-03-19T05:13:16.880Z,45.5
2018-03-19T05:14:17.151Z,45.7
2018-03-19T05:15:16.426Z,45.6
2018-03-19T05:16:16.693Z,45.8
2018-03-19T05:17:16.957Z,45.9
2018-03-19T05:18:17.237Z,45.6
2018-03-19T05:19:16.501Z,45.7
2018-03-19T05:20:16.769Z,45.6
2018-03-19T05:21:16.812Z,45.5
2018-03-19T05:22:17.077Z,45.2
2018-03-19T05:23:16.352Z,45.7
2018-03-19T05:24:16.938Z,45.7
2018-03-19T05:25:17.201Z,45.4
2018-03-19T05:26:16.485Z,45.3
2018-03-19T05:27:16.749Z,45.4
2018-03-19T05:28:17.016Z,45.5
2018-03-19T05:29:16.281Z,45.4
2018-03-19T05:30:16.563Z,45.5
2018-03-19T05:31:16.596Z,45.4
2018-03-19T05:32:16.853Z,45.8
2018-03-19T05:33:17.120Z,45.5
2018-03-19T05:34:16.385Z,45.3
2018-03-19T05:35:16.662Z,45.5
2018-03-19T05:36:16.941Z,45.5
2018-03-19T05:37:17.212Z,45.6
2018-03-19T05:38:16.485Z,45.5
2018-03-19T05:39:16.761Z,45.8
2018-03-19T05:40:17.059Z,45.9
2018-03-19T05:41:17.088Z,45.6
2018-03-19T05:42:16.363Z,45.6
2018-03-19T05:43:16.649Z,45.6
2018-03-19T05:44:16.922Z,45.8
2018-03-19T05:45:17.209Z,45.6
2018-03-19T05:46:16.487Z,45.4
2018-03-19T05:47:16.762Z,45.8
2018-03-19T05:48:17.031Z,45.6
2018-03-19T05:49:16.302Z,45.5
2018-03-19T05:50:16.581Z,45.5
2018-03-19T05:51:16.617Z,45.6
2018-03-19T05:52:16.889Z,45.6
2018-03-19T05:53:17.171Z,45.8
2018-03-19T05:54:16.460Z,45.6
2018-03-19T05:55:16.732Z,45.6
2018-03-19T05:56:16.995Z,45.6
2018-03-19T05:57:16.268Z,45.9
2018-03-19T05:58:16.535Z,45.5
2018-03-19T05:59:16.811Z,45.7
2018-03-19T06:00:17.096Z,45.8
2018-03-19T06:01:17.144Z,45.4
2018-03-19T06:02:16.424Z,45.4
2018-03-19T06:03:16.689Z,45.4
2018-03-19T06:04:16.960Z,45.0
2018-03-19T06:05:17.240Z,45.3
2018-03-19T06:06:16.510Z,45.1
2018-03-19T06:07:16.777Z,45.0
2018-03-19T06:08:17.048Z,45.1
2018-03-19T06:09:16.320Z,45.0
2018-03-19T06:10:16.596Z,45.0
2018-03-19T06:11:16.638Z,44.4
2018-03-19T06:12:16.908Z,44.6
2018-03-19T06:13:17.176Z,45.0
2018-03-19T06:14:16.443Z,45.0
2018-03-19T06:15:16.727Z,45.1
2018-03-19T06:16:17.002Z,44.5
2018-03-19T06:17:16.276Z,44.5
2018-03-19T06:18:16.552Z,45.1
2018-03-19T06:19:16.826Z,44.7
2018-03-19T06:20:17.115Z,44.9
2018-03-19T06:21:17.149Z,44.8
2018-03-19T06:22:16.413Z,44.4
2018-03-19T06:23:16.686Z,44.5
2018-03-19T06:24:16.962Z,44.6
2018-03-19T06:25:17.229Z,45.1
2018-03-19T06:26:16.496Z,44.9
2018-03-19T06:27:16.768Z,45.1
2018-03-19T06:28:17.030Z,45.0
2018-03-19T06:29:16.291Z,44.9
2018-03-19T06:30:16.564Z,44.8
2018-03-19T06:31:16.638Z,44.4
2018-03-19T06:32:16.918Z,44.5
2018-03-19T06:33:17.187Z,44.4
2018-03-19T06:34:16.459Z,44.9
2018-03-19T06:35:16.740Z,44.4
2018-03-19T06:36:17.028Z,45.0
2018-03-19T06:37:16.295Z,44.8
2018-03-19T06:38:16.564Z,44.8
2018-03-19T06:39:16.832Z,44.8
2018-03-19T06:40:17.100Z,44.5
2018-03-19T06:41:17.153Z,44.4
2018-03-19T06:42:16.423Z,44.6
2018-03-19T06:43:16.697Z,44.5
2018-03-19T06:44:16.969Z,44.4
2018-03-19T06:45:17.240Z,44.5
2018-03-19T06:46:16.508Z,44.5
2018-03-19T06:47:16.850Z,44.6
2018-03-19T06:48:17.137Z,44.5
2018-03-19T06:49:16.406Z,44.5
2018-03-19T06:50:16.692Z,44.6
2018-03-19T06:51:16.728Z,44.4
2018-03-19T06:52:16.988Z,45.0
2018-03-19T06:53:17.258Z,44.7
2018-03-19T06:54:16.523Z,44.4
2018-03-19T06:55:16.786Z,44.6
2018-03-19T06:56:17.053Z,44.6
2018-03-19T06:57:16.320Z,44.6
2018-03-19T06:58:16.580Z,44.5
2018-03-19T06:59:16.863Z,44.6
2018-03-19T07:00:17.154Z,44.5
2018-03-19T07:01:17.506Z,44.8
2018-03-19T07:02:16.782Z,44.6
2018-03-19T07:03:17.046Z,44.6
2018-03-19T07:04:16.326Z,44.5
2018-03-19T07:05:16.599Z,44.5
2018-03-19T07:06:16.910Z,44.6
2018-03-19T07:07:17.180Z,44.6
2018-03-19T07:08:16.447Z,44.6
2018-03-19T07:09:16.724Z,44.8
2018-03-19T07:10:17.000Z,44.5
2018-03-19T07:11:17.316Z,44.6
2018-03-19T07:12:16.582Z,44.5
2018-03-19T07:13:16.854Z,44.6
2018-03-19T07:14:17.129Z,44.5
2018-03-19T07:15:16.391Z,45.0
2018-03-19T07:16:16.660Z,44.4
2018-03-19T07:17:17.066Z,44.7
2018-03-19T07:18:16.348Z,44.5
2018-03-19T07:19:16.616Z,44.5
2018-03-19T07:20:16.896Z,44.4
2018-03-19T07:21:16.940Z,44.4
2018-03-19T07:22:17.217Z,44.6
2018-03-19T07:23:16.495Z,44.4
2018-03-19T07:24:16.760Z,44.3
2018-03-19T07:25:17.025Z,44.5
2018-03-19T07:26:16.289Z,44.6
2018-03-19T07:27:16.560Z,44.5
2018-03-19T07:28:16.822Z,44.0
2018-03-19T07:29:17.094Z,44.1
2018-03-19T07:30:16.365Z,44.0
2018-03-19T07:31:16.414Z,44.4
2018-03-19T07:32:16.684Z,44.0
2018-03-19T07:33:16.950Z,44.1
2018-03-19T07:34:17.217Z,44.5
2018-03-19T07:35:16.488Z,43.9
2018-03-19T07:36:16.748Z,44.0
2018-03-19T07:37:17.024Z,44.1
2018-03-19T07:38:16.288Z,44.3
2018-03-19T07:39:16.561Z,44.2
2018-03-19T07:40:16.836Z,44.0
2018-03-19T07:41:16.882Z,43.3
2018-03-19T07:42:17.169Z,44.0
2018-03-19T07:43:16.436Z,43.5
2018-03-19T07:44:16.709Z,43.2
2018-03-19T07:45:16.984Z,43.0
2018-03-19T07:46:17.251Z,43.3
2018-03-19T07:47:16.521Z,42.5
2018-03-19T07:48:16.791Z,42.8
2018-03-19T07:49:17.067Z,43.0
2018-03-19T07:50:16.354Z,42.2
2018-03-19T07:51:16.389Z,42.3
2018-03-19T07:52:16.663Z,42.5
2018-03-19T07:53:16.936Z,42.5
2018-03-19T07:54:17.204Z,42.5
2018-03-19T07:55:16.475Z,42.1
2018-03-19T07:56:16.753Z,42.2
2018-03-19T07:57:17.111Z,42.6
2018-03-19T07:58:16.394Z,42.2
2018-03-19T07:59:16.677Z,41.8
2018-03-19T08:00:16.955Z,41.6
2018-03-19T08:01:17.001Z,41.9
2018-03-19T08:02:16.276Z,41.8
2018-03-19T08:03:16.545Z,41.6
2018-03-19T08:04:16.815Z,42.0
2018-03-19T08:05:17.090Z,41.4
2018-03-19T08:06:16.368Z,41.5
2018-03-19T08:07:16.637Z,41.3
2018-03-19T08:08:16.919Z,41.3
2018-03-19T08:09:17.188Z,41.3
2018-03-19T08:10:16.468Z,41.0
2018-03-19T08:11:16.502Z,41.0
2018-03-19T08:12:16.868Z,40.4
2018-03-19T08:13:17.148Z,40.2
2018-03-19T08:14:16.420Z,39.6
2018-03-19T08:15:16.700Z,39.0
2018-03-19T08:16:16.967Z,39.4
2018-03-19T08:17:17.254Z,38.5
2018-03-19T08:18:16.521Z,38.9
2018-03-19T08:19:16.793Z,38.8
2018-03-19T08:20:17.068Z,38.6
2018-03-19T08:21:17.131Z,39.1
2018-03-19T08:22:16.412Z,38.8
2018-03-19T08:23:16.683Z,38.8
2018-03-19T08:24:16.953Z,38.9
2018-03-19T08:25:17.223Z,38.6
2018-03-19T08:26:16.483Z,39.4
2018-03-19T08:27:16.755Z,39.6
2018-03-19T08:28:17.022Z,39.5
2018-03-19T08:29:16.296Z,38.9
2018-03-19T08:30:16.567Z,38.8
2018-03-19T08:31:16.621Z,38.7
2018-03-19T08:32:16.878Z,38.6
2018-03-19T08:33:17.155Z,38.6
2018-03-19T08:34:16.423Z,38.9
2018-03-19T08:35:16.691Z,39.2
2018-03-19T08:36:16.959Z,39.1
2018-03-19T08:37:17.222Z,39.0
2018-03-19T08:38:16.491Z,38.8
2018-03-19T08:39:16.756Z,38.6
2018-03-19T08:40:17.035Z,39.2
2018-03-19T08:41:17.073Z,38.1
2018-03-19T08:42:16.344Z,38.2
2018-03-19T08:43:16.657Z,38.4
2018-03-19T08:44:16.939Z,38.4
2018-03-19T08:45:17.223Z,37.8
2018-03-19T08:46:16.497Z,37.3
2018-03-19T08:47:16.786Z,36.7
2018-03-19T08:48:17.053Z,36.5
2018-03-19T08:49:16.332Z,35.5
2018-03-19T08:50:16.614Z,35.0
2018-03-19T08:51:16.642Z,34.6
2018-03-19T08:52:16.910Z,34.6
2018-03-19T08:53:17.185Z,34.5
2018-03-19T08:54:16.467Z,35.0
2018-03-19T08:55:16.744Z,35.7
2018-03-19T08:56:17.010Z,35.1
2018-03-19T08:57:16.283Z,34.5
2018-03-19T08:58:16.546Z,34.8
2018-03-19T08:59:16.813Z,34.6
2018-03-19T09:00:17.105Z,34.0
2018-03-19T09:01:17.142Z,34.9
2018-03-19T09:02:16.413Z,34.6
2018-03-19T09:03:16.686Z,34.3
2018-03-19T09:04:16.974Z,33.4
2018-03-19T09:05:17.255Z,32.5
2018-03-19T09:06:16.529Z,32.1
2018-03-19T09:07:16.873Z,33.0
2018-03-19T09:08:17.198Z,31.9
2018-03-19T09:09:16.468Z,31.8
2018-03-19T09:10:16.747Z,33.0
2018-03-19T09:11:16.790Z,33.3
2018-03-19T09:12:17.065Z,33.0
2018-03-19T09:13:16.331Z,32.2
2018-03-19T09:14:16.599Z,33.7
2018-03-19T09:15:16.862Z,34.2
2018-03-19T09:16:17.135Z,32.4
2018-03-19T09:17:16.410Z,31.6
2018-03-19T09:18:16.680Z,31.5
2018-03-19T09:19:16.953Z,32.8
2018-03-19T09:20:17.223Z,31.8
2018-03-19T09:21:16.281Z,32.2
2018-03-19T09:22:16.551Z,31.9
2018-03-19T09:23:16.819Z,31.8
2018-03-19T09:24:17.082Z,32.5
2018-03-19T09:25:16.358Z,31.6
2018-03-19T09:26:16.627Z,32.2
2018-03-19T09:27:16.900Z,32.5
2018-03-19T09:28:17.170Z,32.7
2018-03-19T09:29:16.441Z,32.2
2018-03-19T09:30:16.726Z,34.4
2018-03-19T09:31:16.864Z,34.6
2018-03-19T09:32:17.135Z,34.6
2018-03-19T09:33:16.409Z,31.6
2018-03-19T09:34:16.695Z,32.0
2018-03-19T09:35:17.020Z,31.9
2018-03-19T09:36:16.310Z,32.4
2018-03-19T09:37:16.579Z,32.5
2018-03-19T09:38:16.870Z,32.5
2018-03-19T09:39:17.136Z,31.4
2018-03-19T09:40:16.428Z,31.6
2018-03-19T09:41:16.452Z,33.0
2018-03-19T09:42:16.712Z,32.3
2018-03-19T09:43:16.975Z,32.6
2018-03-19T09:44:17.241Z,31.8
2018-03-19T09:45:16.518Z,31.3
2018-03-19T09:46:16.785Z,31.9
2018-03-19T09:47:17.053Z,33.0
2018-03-19T09:48:16.409Z,32.4
2018-03-19T09:49:16.686Z,31.8
2018-03-19T09:50:16.960Z,31.2
2018-03-19T09:51:16.986Z,30.6
2018-03-19T09:52:16.261Z,30.4
2018-03-19T09:53:16.533Z,32.1
2018-03-19T09:54:16.800Z,31.4
2018-03-19T09:55:17.066Z,32.6
2018-03-19T09:56:16.326Z,32.6
2018-03-19T09:57:16.603Z,32.2
2018-03-19T09:58:16.867Z,33.5
2018-03-19T09:59:17.138Z,33.2
2018-03-19T10:00:16.421Z,32.4
2018-03-19T10:01:16.451Z,32.5
2018-03-19T10:02:16.731Z,32.6
2018-03-19T10:03:17.000Z,33.3
2018-03-19T10:04:16.316Z,33.9
2018-03-19T10:05:16.592Z,33.2
2018-03-19T10:06:16.865Z,32.8
2018-03-19T10:07:17.137Z,32.5
2018-03-19T10:08:16.403Z,31.4
2018-03-19T10:09:16.679Z,31.1
2018-03-19T10:10:17.029Z,30.8
2018-03-19T10:11:17.026Z,30.2
2018-03-19T10:12:16.290Z,31.9
2018-03-19T10:13:16.612Z,31.7
2018-03-19T10:14:16.885Z,32.8
2018-03-19T10:15:17.160Z,33.1
2018-03-19T10:16:16.485Z,33.3
2018-03-19T10:17:16.756Z,33.3
2018-03-19T10:18:17.032Z,31.4
2018-03-19T10:19:16.301Z,32.2
2018-03-19T10:20:16.578Z,32.2
2018-03-19T10:21:16.626Z,32.1
2018-03-19T10:22:16.896Z,33.5
2018-03-19T10:23:17.172Z,32.1
2018-03-19T10:24:16.445Z,31.3
2018-03-19T10:25:16.722Z,31.4
2018-03-19T10:26:16.998Z,31.4
2018-03-19T10:27:16.276Z,31.0
2018-03-19T10:28:16.536Z,30.9
2018-03-19T10:29:16.794Z,30.2
2018-03-19T10:30:17.068Z,30.5
2018-03-19T10:31:17.100Z,30.9
2018-03-19T10:32:16.372Z,30.5
2018-03-19T10:33:16.645Z,30.9
2018-03-19T10:34:17.074Z,30.6
2018-03-19T10:35:16.351Z,29.9
2018-03-19T10:36:16.634Z,29.4
2018-03-19T10:37:16.918Z,28.8
2018-03-19T10:38:17.193Z,28.9
2018-03-19T10:39:16.473Z,28.4
2018-03-19T10:40:16.753Z,31.7
2018-03-19T10:41:16.782Z,32.4
2018-03-19T10:42:17.049Z,31.6
2018-03-19T10:43:16.324Z,29.8
2018-03-19T10:44:16.604Z,30.9
2018-03-19T10:45:16.884Z,31.3
2018-03-19T10:46:17.145Z,31.6
2018-03-19T10:47:16.417Z,30.3
2018-03-19T10:48:16.685Z,30.2
2018-03-19T10:49:17.000Z,29.4
2018-03-19T10:50:16.283Z,29.9
2018-03-19T10:51:16.326Z,29.9
2018-03-19T10:52:16.589Z,29.4
2018-03-19T10:53:16.855Z,29.7
2018-03-19T10:54:17.123Z,29.6
2018-03-19T10:55:16.386Z,30.6
2018-03-19T10:56:16.655Z,29.8
2018-03-19T10:57:16.938Z,29.6
2018-03-19T10:58:17.210Z,29.6
2018-03-19T10:59:16.480Z,30.8
2018-03-19T11:00:16.760Z,30.2
2018-03-19T11:01:16.898Z,30.4
2018-03-19T11:02:17.189Z,30.0
2018-03-19T11:03:16.462Z,29.2
2018-03-19T11:04:16.735Z,29.9
2018-03-19T11:05:17.010Z,29.6
2018-03-19T11:06:16.284Z,29.7
2018-03-19T11:07:16.542Z,29.4
2018-03-19T11:08:16.825Z,29.5
2018-03-19T11:09:17.090Z,29.3
2018-03-19T11:10:16.361Z,29.7
2018-03-19T11:11:16.389Z,30.2
2018-03-19T11:12:16.861Z,30.4
2018-03-19T11:13:17.216Z,29.8
2018-03-19T11:14:16.487Z,30.4
2018-03-19T11:15:17.024Z,31.1
2018-03-19T11:16:16.300Z,30.7
2018-03-19T11:17:16.571Z,29.4
2018-03-19T11:18:16.834Z,30.9
2018-03-19T11:19:17.116Z,30.5
2018-03-19T11:20:16.402Z,30.9
2018-03-19T11:21:16.435Z,31.1
2018-03-19T11:22:16.721Z,31.1
2018-03-19T11:23:16.998Z,30.1
2018-03-19T11:24:16.274Z,29.5
2018-03-19T11:25:16.547Z,29.2
2018-03-19T11:26:16.817Z,29.6
2018-03-19T11:27:17.094Z,31.1
2018-03-19T11:28:16.361Z,30.3
2018-03-19T11:29:16.627Z,30.6
2018-03-19T11:30:16.901Z,30.6
2018-03-19T11:31:16.957Z,30.7
2018-03-19T11:32:17.232Z,32.0
2018-03-19T11:33:16.506Z,32.6
2018-03-19T11:34:16.773Z,31.9
2018-03-19T11:35:17.043Z,31.5
2018-03-19T11:36:16.311Z,31.6
2018-03-19T11:37:16.580Z,31.7
2018-03-19T11:38:16.939Z,31.0
2018-03-19T11:39:17.255Z,30.9
2018-03-19T11:40:16.539Z,31.1
2018-03-19T11:41:16.600Z,30.6
2018-03-19T11:42:16.862Z,30.1
2018-03-19T11:43:17.131Z,30.9
2018-03-19T11:44:16.408Z,30.9
2018-03-19T11:45:16.673Z,31.7
2018-03-19T11:46:16.962Z,30.8
2018-03-19T11:47:17.569Z,31.4
2018-03-19T11:48:16.842Z,32.2
2018-03-19T11:49:17.115Z,31.6
2018-03-19T11:50:16.395Z,30.9
2018-03-19T11:51:16.411Z,30.9
2018-03-19T11:52:16.671Z,30.8
2018-03-19T11:53:16.946Z,32.6
2018-03-19T11:54:17.205Z,32.8
2018-03-19T11:55:16.473Z,32.8
2018-03-19T11:56:16.749Z,33.0
2018-03-19T11:57:17.013Z,32.7
2018-03-19T11:58:16.290Z,31.9
2018-03-19T11:59:16.559Z,32.6
2018-03-19T12:00:16.838Z,33.0
2018-03-19T12:01:16.906Z,33.4
2018-03-19T12:02:17.175Z,33.3
2018-03-19T12:03:16.440Z,33.0
2018-03-19T12:04:16.711Z,33.1
2018-03-19T12:05:16.972Z,34.4
2018-03-19T12:06:17.240Z,33.8
2018-03-19T12:07:16.517Z,33.6
2018-03-19T12:08:16.794Z,33.8
2018-03-19T12:09:17.071Z,34.0
2018-03-19T12:10:16.352Z,33.4
2018-03-19T12:11:16.387Z,34.2
2018-03-19T12:12:16.723Z,34.6
2018-03-19T12:13:17.001Z,34.5
2018-03-19T12:14:16.277Z,34.3
2018-03-19T12:15:16.558Z,34.0
2018-03-19T12:16:16.821Z,34.0
2018-03-19T12:17:17.088Z,33.8
2018-03-19T12:18:16.351Z,34.7
2018-03-19T12:19:16.617Z,34.8
2018-03-19T12:20:16.883Z,35.0
2018-03-19T12:21:16.922Z,35.0
2018-03-19T12:22:17.195Z,35.8
2018-03-19T12:23:16.465Z,35.5
2018-03-19T12:24:16.732Z,36.1
2018-03-19T12:25:17.004Z,36.1
2018-03-19T12:26:16.268Z,35.8
2018-03-19T12:27:16.545Z,36.0
2018-03-19T12:28:16.812Z,35.9
2018-03-19T12:29:17.077Z,35.8
2018-03-19T12:30:16.355Z,35.5
2018-03-19T12:31:16.389Z,36.0
2018-03-19T12:32:16.662Z,35.9
2018-03-19T12:33:16.933Z,35.5
2018-03-19T12:34:17.208Z,35.2
2018-03-19T12:35:16.485Z,35.3
2018-03-19T12:36:16.762Z,35.9
2018-03-19T12:37:17.032Z,35.8
2018-03-19T12:38:16.292Z,35.9
2018-03-19T12:39:16.569Z,35.9
2018-03-19T12:40:16.834Z,36.1
2018-03-19T12:41:16.888Z,35.6
2018-03-19T12:42:17.169Z,35.8
2018-03-19T12:43:16.439Z,35.6
2018-03-19T12:44:16.717Z,35.9
2018-03-19T12:45:16.992Z,35.5
2018-03-19T12:46:16.256Z,36.2
2018-03-19T12:47:16.523Z,35.8
2018-03-19T12:48:16.789Z,36.0
2018-03-19T12:49:17.069Z,35.5
2018-03-19T12:50:16.339Z,35.1
2018-03-19T12:51:16.403Z,35.4
2018-03-19T12:52:16.675Z,35.9
2018-03-19T12:53:16.954Z,35.9
2018-03-19T12:54:17.214Z,35.4
2018-03-19T12:55:16.487Z,35.5
2018-03-19T12:56:16.753Z,35.5
2018-03-19T12:57:17.022Z,35.4
2018-03-19T12:58:16.288Z,35.6
2018-03-19T12:59:16.551Z,35.5
2018-03-19T13:00:16.826Z,35.6
2018-03-19T13:01:16.854Z,35.6
2018-03-19T13:02:17.171Z,35.8
2018-03-19T13:03:16.451Z,36.1
2018-03-19T13:04:16.720Z,35.8
2018-03-19T13:05:16.997Z,36.8
2018-03-19T13:06:16.280Z,36.5
2018-03-19T13:07:16.547Z,36.6
2018-03-19T13:08:16.814Z,36.2
2018-03-19T13:09:17.088Z,36.0
2018-03-19T13:10:16.391Z,36.4
2018-03-19T13:11:16.406Z,36.3
2018-03-19T13:12:16.681Z,36.5
2018-03-19T13:13:16.951Z,35.9
2018-03-19T13:14:17.224Z,36.1
2018-03-19T13:15:16.496Z,35.8
2018-03-19T13:16:16.774Z,36.0
2018-03-19T13:17:17.041Z,36.2
2018-03-19T13:18:16.312Z,35.7